createdAt,value
2023-02-28T00:00:06.566Z,99.99
2023-02-28T00:01:06.557Z,99.99
2023-02-28T00:02:06.621Z,99.99
2023-02-28T00:03:06.641Z,99.99
2023-02-28T00:04:06.546Z,99.99
2023-02-28T00:05:06.537Z,99.99
2023-02-28T00:06:06.540Z,99.99
2023-02-28T00:07:06.528Z,99.99
2023-02-28T00:08:06.534Z,99.99
2023-02-28T00:09:06.514Z,99.99
2023-02-28T00:10:06.518Z,99.99
2023-02-28T00:11:06.527Z,99.99
2023-02-28T00:12:06.508Z,99.99
2023-02-28T00:13:06.496Z,99.99
2023-02-28T00:14:06.499Z,99.99
2023-02-28T00:15:06.491Z,99.99
2023-02-28T00:16:06.485Z,99.99
2023-02-28T00:17:06.482Z,99.99
2023-02-28T00:18:06.482Z,99.99
2023-02-28T00:19:06.480Z,99.99
2023-02-28T00:20:06.467Z,99.99
2023-02-28T00:21:06.457Z,99.99
2023-02-28T00:22:06.457Z,99.99
2023-02-28T00:23:06.447Z,99.99
2023-02-28T00:24:06.445Z,99.99
2023-02-28T00:25:06.435Z,99.99
2023-02-28T00:26:06.446Z,99.99
2023-02-28T00:27:06.447Z,99.99
2023-02-28T00:28:06.426Z,99.99
2023-02-28T00:29:06.415Z,99.99
2023-02-28T00:30:06.414Z,99.99
2023-02-28T00:31:06.612Z,99.99
2023-02-28T00:32:06.439Z,99.99
2023-02-28T00:33:06.398Z,99.99
2023-02-28T00:34:06.390Z,99.99
2023-02-28T00:35:06.383Z,99.99
2023-02-28T00:36:06.391Z,99.99
2023-02-28T00:37:06.374Z,99.99
2023-02-28T00:38:06.366Z,99.99
2023-02-28T00:39:06.361Z,99.99
2023-02-28T00:40:06.359Z,99.99
2023-02-28T00:41:06.367Z,99.99
2023-02-28T00:42:06.352Z,99.99
2023-02-28T00:43:06.376Z,99.99
2023-02-28T00:44:06.342Z,99.99
2023-02-28T00:45:06.332Z,99.99
2023-02-28T00:46:06.435Z,99.99
2023-02-28T00:47:06.326Z,99.99
2023-02-28T00:48:06.319Z,99.99
2023-02-28T00:49:06.310Z,99.99
2023-02-28T00:50:06.308Z,99.99
2023-02-28T00:51:06.309Z,99.99
2023-02-28T00:52:06.318Z,99.99
2023-02-28T00:53:06.293Z,99.99
2023-02-28T00:54:06.284Z,99.99
2023-02-28T00:55:06.292Z,99.99
2023-02-28T00:56:06.277Z,99.99
2023-02-28T00:57:06.266Z,99.99
2023-02-28T00:58:06.271Z,99.99
2023-02-28T00:59:06.274Z,99.99
2023-02-28T01:00:06.258Z,99.99
2023-02-28T01:01:06.370Z,99.99
2023-02-28T01:02:06.244Z,99.99
2023-02-28T01:03:06.237Z,99.99
2023-02-28T01:04:06.294Z,99.99
2023-02-28T01:05:06.228Z,99.99
2023-02-28T01:06:06.219Z,99.99
2023-02-28T01:07:06.216Z,99.99
2023-02-28T01:08:06.228Z,99.99
2023-02-28T01:09:06.213Z,99.99
2023-02-28T01:10:06.204Z,99.99
2023-02-28T01:11:06.196Z,99.99
2023-02-28T01:12:06.209Z,99.99
2023-02-28T01:13:06.193Z,99.99
2023-02-28T01:14:06.183Z,99.99
2023-02-28T01:15:06.209Z,99.99
2023-02-28T01:16:06.227Z,99.99
2023-02-28T01:17:06.166Z,99.99
2023-02-28T01:18:06.163Z,99.99
2023-02-28T01:19:06.152Z,99.99
2023-02-28T01:20:06.154Z,99.99
2023-02-28T01:21:06.145Z,99.99
2023-02-28T01:22:06.141Z,99.99
2023-02-28T01:23:06.127Z,99.99
2023-02-28T01:24:06.146Z,99.99
2023-02-28T01:25:06.237Z,99.99
2023-02-28T01:26:06.119Z,99.99
2023-02-28T01:27:06.125Z,99.99
2023-02-28T01:28:06.116Z,99.99
2023-02-28T01:29:06.102Z,99.99
2023-02-28T01:30:06.097Z,99.99
2023-02-28T01:31:06.182Z,99.99
2023-02-28T01:32:06.128Z,99.99
2023-02-28T01:33:06.083Z,99.99
2023-02-28T01:34:06.079Z,99.99
2023-02-28T01:35:06.072Z,99.99
2023-02-28T01:36:06.146Z,99.99
2023-02-28T01:37:06.057Z,99.99
2023-02-28T01:38:20.842Z,99.99
2023-02-28T01:39:06.056Z,99.99
2023-02-28T01:40:06.070Z,99.99
2023-02-28T01:41:06.037Z,99.99
2023-02-28T01:42:06.033Z,99.99
2023-02-28T01:43:06.023Z,99.99
2023-02-28T01:44:06.020Z,99.99
2023-02-28T01:45:06.012Z,99.99
2023-02-28T01:46:06.066Z,99.99
2023-02-28T01:47:06.017Z,99.99
2023-02-28T01:48:06.016Z,99.99
2023-02-28T01:49:05.989Z,99.99
2023-02-28T01:50:05.987Z,99.99
2023-02-28T01:51:05.983Z,99.99
2023-02-28T01:52:05.978Z,99.99
2023-02-28T01:53:05.965Z,99.99
2023-02-28T01:54:05.959Z,99.99
2023-02-28T01:55:05.955Z,99.99
2023-02-28T01:56:05.953Z,99.99
2023-02-28T01:57:05.946Z,99.99
2023-02-28T01:58:05.960Z,99.99
2023-02-28T01:59:05.945Z,99.99
2023-02-28T02:00:05.927Z,99.99
2023-02-28T02:01:05.923Z,99.99
2023-02-28T02:02:06.011Z,99.99
2023-02-28T02:03:05.987Z,99.99
2023-02-28T02:04:05.906Z,99.99
2023-02-28T02:05:05.900Z,99.99
2023-02-28T02:06:05.894Z,99.99
2023-02-28T02:07:05.889Z,99.99
2023-02-28T02:08:05.884Z,99.99
2023-02-28T02:09:05.879Z,99.99
2023-02-28T02:10:05.878Z,99.99
2023-02-28T02:11:05.865Z,99.99
2023-02-28T02:12:05.861Z,99.99
2023-02-28T02:13:05.854Z,99.99
2023-02-28T02:14:05.851Z,99.99
2023-02-28T02:15:05.842Z,99.99
2023-02-28T02:16:05.890Z,99.99
2023-02-28T02:17:05.830Z,99.99
2023-02-28T02:18:05.831Z,99.99
2023-02-28T02:19:05.847Z,99.99
2023-02-28T02:20:05.817Z,99.99
2023-02-28T02:21:05.809Z,99.99
2023-02-28T02:22:05.807Z,99.99
2023-02-28T02:23:05.802Z,99.99
2023-02-28T02:24:05.794Z,99.99
2023-02-28T02:25:05.807Z,99.99
2023-02-28T02:26:05.779Z,99.99
2023-02-28T02:27:05.777Z,99.99
2023-02-28T02:28:05.787Z,99.99
2023-02-28T02:29:05.775Z,99.99
2023-02-28T02:30:05.775Z,99.99
2023-02-28T02:31:05.795Z,99.99
2023-02-28T02:32:05.807Z,99.99
2023-02-28T02:33:05.741Z,99.99
2023-02-28T02:34:05.739Z,99.99
2023-02-28T02:35:05.753Z,99.99
2023-02-28T02:36:05.723Z,99.99
2023-02-28T02:37:05.713Z,99.99
2023-02-28T02:38:05.737Z,99.99
2023-02-28T02:39:05.711Z,99.99
2023-02-28T02:40:05.694Z,99.99
2023-02-28T02:41:05.699Z,99.99
2023-02-28T02:42:05.691Z,99.99
2023-02-28T02:43:05.684Z,99.99
2023-02-28T02:44:05.675Z,99.99
2023-02-28T02:45:05.681Z,99.99
2023-02-28T02:46:05.664Z,99.99
2023-02-28T02:47:05.663Z,99.99
2023-02-28T02:48:05.650Z,99.99
2023-02-28T02:49:05.650Z,99.99
2023-02-28T02:50:05.667Z,99.99
2023-02-28T02:51:05.665Z,99.99
2023-02-28T02:52:05.628Z,99.99
2023-02-28T02:53:05.634Z,99.99
2023-02-28T02:54:05.616Z,99.99
2023-02-28T02:55:05.623Z,99.99
2023-02-28T02:56:05.607Z,99.99
2023-02-28T02:57:05.602Z,99.99
2023-02-28T02:58:05.591Z,99.99
2023-02-28T02:59:05.595Z,99.99
2023-02-28T03:00:05.590Z,99.99
2023-02-28T03:01:05.668Z,99.99
2023-02-28T03:02:05.572Z,99.99
2023-02-28T03:03:05.565Z,99.99
2023-02-28T03:04:05.641Z,99.99
2023-02-28T03:05:05.559Z,99.99
2023-02-28T03:06:05.544Z,99.99
2023-02-28T03:07:05.562Z,99.99
2023-02-28T03:08:05.536Z,99.99
2023-02-28T03:09:05.542Z,99.99
2023-02-28T03:10:05.523Z,99.99
2023-02-28T03:11:05.517Z,99.99
2023-02-28T03:12:05.513Z,99.99
2023-02-28T03:13:05.511Z,99.99
2023-02-28T03:14:05.493Z,99.99
2023-02-28T03:15:05.496Z,99.99
2023-02-28T03:16:05.497Z,99.99
2023-02-28T03:17:05.482Z,99.99
2023-02-28T03:18:05.476Z,99.99
2023-02-28T03:19:05.473Z,99.99
2023-02-28T03:20:07.750Z,99.99
2023-02-28T03:21:05.461Z,99.99
2023-02-28T03:22:05.453Z,99.99
2023-02-28T03:23:05.469Z,99.99
2023-02-28T03:24:05.455Z,99.99
2023-02-28T03:25:05.436Z,99.99
2023-02-28T03:26:05.427Z,99.99
2023-02-28T03:27:05.421Z,99.99
2023-02-28T03:28:05.449Z,99.99
2023-02-28T03:29:05.412Z,99.99
2023-02-28T03:30:05.408Z,99.99
2023-02-28T03:31:05.403Z,99.99
2023-02-28T03:32:05.470Z,99.99
2023-02-28T03:33:05.385Z,99.99
2023-02-28T03:34:05.380Z,99.99
2023-02-28T03:35:05.380Z,99.99
2023-02-28T03:36:05.364Z,99.99
2023-02-28T03:37:05.426Z,99.99
2023-02-28T03:38:05.378Z,99.99
2023-02-28T03:39:05.366Z,99.99
2023-02-28T03:40:05.341Z,99.99
2023-02-28T03:41:05.340Z,99.99
2023-02-28T03:42:05.334Z,99.99
2023-02-28T03:43:05.325Z,99.99
2023-02-28T03:44:05.324Z,99.99
2023-02-28T03:45:05.314Z,99.99
2023-02-28T03:46:05.354Z,99.99
2023-02-28T03:47:05.301Z,99.99
2023-02-28T03:48:05.301Z,99.99
2023-02-28T03:49:05.292Z,99.99
2023-02-28T03:50:05.274Z,99.99
2023-02-28T03:51:05.289Z,99.99
2023-02-28T03:52:05.273Z,99.99
2023-02-28T03:53:05.261Z,99.99
2023-02-28T03:54:05.251Z,99.99
2023-02-28T03:55:05.279Z,99.99
2023-02-28T03:56:05.240Z,99.99
2023-02-28T03:57:05.237Z,99.99
2023-02-28T03:58:05.225Z,99.99
2023-02-28T03:59:05.222Z,99.99
2023-02-28T04:00:05.209Z,99.99
2023-02-28T04:01:05.203Z,99.99
2023-02-28T04:02:05.244Z,99.99
2023-02-28T04:03:05.196Z,99.99
2023-02-28T04:04:05.239Z,99.99
2023-02-28T04:05:05.183Z,99.99
2023-02-28T04:06:05.176Z,99.99
2023-02-28T04:07:05.190Z,99.99
2023-02-28T04:08:05.175Z,99.99
2023-02-28T04:09:05.162Z,99.99
2023-02-28T04:10:05.151Z,99.99
2023-02-28T04:11:05.170Z,99.99
2023-02-28T04:12:05.140Z,99.99
2023-02-28T04:13:05.130Z,99.99
2023-02-28T04:14:05.123Z,99.99
2023-02-28T04:15:05.124Z,99.99
2023-02-28T04:16:05.161Z,99.99
2023-02-28T04:17:05.114Z,99.99
2023-02-28T04:18:05.100Z,99.99
2023-02-28T04:19:05.104Z,99.99
2023-02-28T04:20:05.079Z,99.99
2023-02-28T04:21:05.076Z,99.99
2023-02-28T04:22:05.091Z,99.99
2023-02-28T04:23:05.064Z,99.99
2023-02-28T04:24:05.059Z,99.99
2023-02-28T04:25:05.075Z,99.99
2023-02-28T04:26:05.048Z,99.99
2023-02-28T04:27:05.063Z,99.99
2023-02-28T04:28:05.031Z,99.99
2023-02-28T04:29:05.029Z,99.99
2023-02-28T04:30:05.018Z,99.99
2023-02-28T04:31:05.020Z,99.99
2023-02-28T04:32:05.182Z,99.99
2023-02-28T04:33:05.001Z,99.99
2023-02-28T04:34:04.989Z,99.99
2023-02-28T04:35:04.987Z,99.99
2023-02-28T04:36:05.011Z,99.99
2023-02-28T04:37:13.951Z,99.99
2023-02-28T04:38:04.965Z,99.99
2023-02-28T04:39:04.966Z,99.99
2023-02-28T04:40:04.946Z,99.99
2023-02-28T04:41:04.944Z,99.99
2023-02-28T04:42:04.944Z,99.99
2023-02-28T04:43:05.001Z,99.99
2023-02-28T04:44:04.954Z,99.99
2023-02-28T04:45:04.935Z,99.99
2023-02-28T04:46:05.029Z,99.99
2023-02-28T04:47:04.915Z,99.99
2023-02-28T04:48:04.891Z,99.99
2023-02-28T04:49:04.887Z,99.99
2023-02-28T04:50:04.887Z,99.99
2023-02-28T04:51:04.875Z,99.99
2023-02-28T04:52:04.956Z,99.99
2023-02-28T04:53:04.861Z,99.99
2023-02-28T04:54:04.853Z,99.99
2023-02-28T04:55:04.856Z,99.99
2023-02-28T04:56:04.841Z,99.99
2023-02-28T04:57:04.836Z,99.99
2023-02-28T04:58:04.824Z,99.99
2023-02-28T04:59:04.848Z,99.99
2023-02-28T05:00:04.807Z,99.99
2023-02-28T05:01:04.817Z,99.99
2023-02-28T05:02:04.876Z,99.99
2023-02-28T05:03:04.795Z,99.99
2023-02-28T05:04:04.784Z,99.99
2023-02-28T05:05:04.869Z,99.99
2023-02-28T05:06:04.771Z,99.99
2023-02-28T05:07:04.768Z,99.99
2023-02-28T05:08:04.770Z,99.99
2023-02-28T05:09:04.764Z,99.99
2023-02-28T05:10:06.480Z,99.99
2023-02-28T05:11:04.738Z,99.99
2023-02-28T05:12:04.733Z,99.99
2023-02-28T05:13:04.724Z,99.99
2023-02-28T05:14:04.711Z,99.99
2023-02-28T05:15:04.730Z,99.99
2023-02-28T05:16:04.735Z,99.99
2023-02-28T05:17:04.692Z,99.99
2023-02-28T05:18:04.683Z,99.99
2023-02-28T05:19:04.936Z,99.99
2023-02-28T05:20:15.043Z,99.99
2023-02-28T05:21:04.673Z,99.99
2023-02-28T05:22:04.653Z,99.99
2023-02-28T05:23:04.652Z,99.99
2023-02-28T05:24:04.669Z,99.99
2023-02-28T05:25:04.655Z,99.99
2023-02-28T05:26:04.630Z,99.99
2023-02-28T05:27:04.629Z,99.99
2023-02-28T05:28:04.611Z,99.99
2023-02-28T05:29:04.614Z,99.99
2023-02-28T05:30:04.600Z,99.99
2023-02-28T05:31:04.621Z,99.99
2023-02-28T05:32:04.750Z,99.99
2023-02-28T05:33:04.578Z,99.99
2023-02-28T05:34:04.580Z,99.99
2023-02-28T05:35:04.564Z,99.99
2023-02-28T05:36:04.630Z,99.99
2023-02-28T05:37:04.550Z,99.99
2023-02-28T05:38:04.554Z,99.99
2023-02-28T05:39:04.537Z,99.99
2023-02-28T05:40:04.528Z,99.99
2023-02-28T05:41:04.524Z,99.99
2023-02-28T05:42:04.511Z,99.99
2023-02-28T05:43:04.508Z,99.99
2023-02-28T05:44:04.498Z,99.99
2023-02-28T05:45:04.497Z,99.99
2023-02-28T05:46:04.517Z,99.99
2023-02-28T05:47:04.512Z,99.99
2023-02-28T05:48:04.486Z,99.99
2023-02-28T05:49:04.500Z,99.99
2023-02-28T05:50:04.462Z,99.99
2023-02-28T05:51:04.459Z,99.99
2023-02-28T05:52:04.442Z,99.99
2023-02-28T05:53:04.442Z,99.99
2023-02-28T05:54:04.442Z,99.99
2023-02-28T05:55:04.426Z,99.99
2023-02-28T05:56:04.423Z,99.99
2023-02-28T05:57:10.064Z,99.99
2023-02-28T05:58:04.401Z,99.99
2023-02-28T05:59:04.415Z,99.99
2023-02-28T06:00:04.395Z,99.99
2023-02-28T06:01:04.388Z,99.99
2023-02-28T06:02:04.437Z,99.99
2023-02-28T06:03:04.477Z,99.99
2023-02-28T06:04:04.366Z,99.99
2023-02-28T06:05:04.354Z,99.99
2023-02-28T06:06:04.367Z,99.99
2023-02-28T06:07:04.361Z,99.99
2023-02-28T06:08:04.342Z,99.99
2023-02-28T06:09:04.334Z,99.99
2023-02-28T06:10:04.317Z,99.99
2023-02-28T06:11:04.315Z,99.99
2023-02-28T06:12:04.309Z,99.99
2023-02-28T06:13:04.307Z,99.99
2023-02-28T06:14:04.292Z,99.99
2023-02-28T06:15:04.292Z,99.99
2023-02-28T06:16:04.280Z,99.99
2023-02-28T06:17:04.368Z,99.99
2023-02-28T06:18:04.271Z,99.99
2023-02-28T06:19:04.294Z,99.99
2023-02-28T06:20:04.252Z,99.99
2023-02-28T06:21:04.245Z,99.99
2023-02-28T06:22:04.232Z,99.99
2023-02-28T06:23:04.266Z,99.99
2023-02-28T06:24:04.226Z,99.99
2023-02-28T06:25:04.215Z,99.99
2023-02-28T06:26:04.211Z,99.99
2023-02-28T06:27:04.207Z,99.99
2023-02-28T06:28:04.205Z,99.99
2023-02-28T06:29:04.193Z,99.99
2023-02-28T06:30:04.187Z,99.99
2023-02-28T06:31:04.222Z,99.99
2023-02-28T06:32:04.205Z,99.99
2023-02-28T06:33:04.201Z,99.99
2023-02-28T06:34:04.152Z,99.99
2023-02-28T06:35:04.167Z,99.99
2023-02-28T06:36:04.196Z,99.99
2023-02-28T06:37:04.127Z,99.99
2023-02-28T06:38:04.126Z,99.99
2023-02-28T06:39:04.126Z,99.99
2023-02-28T06:40:04.119Z,99.99
2023-02-28T06:41:04.109Z,99.99
2023-02-28T06:42:04.107Z,99.99
2023-02-28T06:43:04.112Z,99.99
2023-02-28T06:44:04.080Z,99.99
2023-02-28T06:45:04.080Z,99.99
2023-02-28T06:46:04.117Z,99.99
2023-02-28T06:47:04.064Z,99.99
2023-02-28T06:48:04.096Z,99.99
2023-02-28T06:49:04.069Z,99.99
2023-02-28T06:50:04.041Z,99.99
2023-02-28T06:51:04.068Z,99.99
2023-02-28T06:52:04.033Z,99.99
2023-02-28T06:53:04.022Z,99.99
2023-02-28T06:54:04.056Z,99.99
2023-02-28T06:55:04.008Z,99.99
2023-02-28T06:56:04.041Z,99.99
2023-02-28T06:57:04.008Z,99.99
2023-02-28T06:58:04.013Z,99.99
2023-02-28T06:59:04.004Z,99.99
2023-02-28T07:00:04.010Z,99.99
2023-02-28T07:01:04.005Z,99.99
2023-02-28T07:02:03.961Z,99.99
2023-02-28T07:03:03.944Z,99.99
2023-02-28T07:04:03.957Z,99.99
2023-02-28T07:05:03.947Z,99.99
2023-02-28T07:06:03.928Z,99.99
2023-02-28T07:07:03.942Z,99.99
2023-02-28T07:08:03.925Z,99.99
2023-02-28T07:09:04.140Z,99.99
2023-02-28T07:10:03.902Z,99.99
2023-02-28T07:11:03.891Z,99.99
2023-02-28T07:12:03.889Z,99.99
2023-02-28T07:13:03.873Z,99.99
2023-02-28T07:14:03.877Z,99.99
2023-02-28T07:15:03.862Z,99.99
2023-02-28T07:16:03.957Z,99.99
2023-02-28T07:17:03.845Z,99.99
2023-02-28T07:18:03.845Z,99.99
2023-02-28T07:19:03.840Z,99.99
2023-02-28T07:20:03.839Z,99.99
2023-02-28T07:21:03.842Z,99.99
2023-02-28T07:22:03.854Z,99.99
2023-02-28T07:23:03.839Z,99.99
2023-02-28T07:24:03.823Z,99.99
2023-02-28T07:25:03.802Z,99.99
2023-02-28T07:26:03.790Z,99.99
2023-02-28T07:27:03.784Z,99.99
2023-02-28T07:28:03.790Z,99.99
2023-02-28T07:29:03.786Z,99.99
2023-02-28T07:30:03.812Z,99.99
2023-02-28T07:31:03.808Z,99.99
2023-02-28T07:32:03.842Z,99.99
2023-02-28T07:33:03.744Z,99.99
2023-02-28T07:34:03.744Z,99.99
2023-02-28T07:35:03.733Z,99.99
2023-02-28T07:36:03.754Z,99.99
2023-02-28T07:37:03.726Z,99.99
2023-02-28T07:38:03.725Z,99.99
2023-02-28T07:39:03.738Z,99.99
2023-02-28T07:40:03.710Z,99.99
2023-02-28T07:41:03.704Z,99.99
2023-02-28T07:42:03.700Z,99.99
2023-02-28T07:43:03.694Z,99.99
2023-02-28T07:44:03.688Z,99.99
2023-02-28T07:45:03.720Z,99.99
2023-02-28T07:46:03.671Z,99.99
2023-02-28T07:47:03.737Z,99.99
2023-02-28T07:48:03.674Z,99.99
2023-02-28T07:49:03.656Z,99.99
2023-02-28T07:50:03.654Z,99.99
2023-02-28T07:51:03.651Z,99.99
2023-02-28T07:52:03.649Z,99.99
2023-02-28T07:53:03.648Z,99.99
2023-02-28T07:54:03.682Z,99.99
2023-02-28T07:55:03.647Z,99.99
2023-02-28T07:56:03.619Z,99.99
2023-02-28T07:57:03.620Z,99.99
2023-02-28T07:58:03.617Z,99.99
2023-02-28T07:59:03.612Z,99.78
2023-02-28T08:00:03.601Z,99.37
2023-02-28T08:01:03.591Z,98.80
2023-02-28T08:02:03.617Z,98.50
2023-02-28T08:03:03.588Z,97.05
2023-02-28T08:04:03.591Z,96.70
2023-02-28T08:05:03.666Z,96.53
2023-02-28T08:06:03.587Z,96.66
2023-02-28T08:07:03.561Z,95.99
2023-02-28T08:08:03.585Z,95.28
2023-02-28T08:09:03.570Z,94.42
2023-02-28T08:10:03.562Z,93.71
2023-02-28T08:11:03.569Z,93.67
2023-02-28T08:12:03.542Z,93.32
2023-02-28T08:13:03.551Z,91.47
2023-02-28T08:14:03.527Z,91.84
2023-02-28T08:15:03.554Z,90.93
2023-02-28T08:16:03.630Z,90.37
2023-02-28T08:17:03.535Z,88.53
2023-02-28T08:18:03.510Z,87.76
2023-02-28T08:19:03.515Z,88.27
2023-02-28T08:20:03.505Z,88.17
2023-02-28T08:21:03.493Z,88.31
2023-02-28T08:22:03.491Z,88.62
2023-02-28T08:23:03.506Z,89.75
2023-02-28T08:24:03.480Z,89.09
2023-02-28T08:25:03.483Z,87.47
2023-02-28T08:26:03.475Z,87.53
2023-02-28T08:27:03.498Z,87.08
2023-02-28T08:28:03.472Z,86.36
2023-02-28T08:29:03.458Z,85.34
2023-02-28T08:30:03.472Z,85.44
2023-02-28T08:31:03.460Z,84.63
2023-02-28T08:32:03.616Z,85.24
2023-02-28T08:33:03.541Z,83.70
2023-02-28T08:34:03.454Z,84.85
2023-02-28T08:35:03.460Z,83.69
2023-02-28T08:36:03.611Z,82.01
2023-02-28T08:37:03.434Z,81.67
2023-02-28T08:38:03.432Z,81.05
2023-02-28T08:39:03.429Z,81.63
2023-02-28T08:40:03.427Z,79.04
2023-02-28T08:41:03.418Z,78.97
2023-02-28T08:42:07.475Z,79.34
2023-02-28T08:43:03.445Z,78.72
2023-02-28T08:44:03.419Z,75.94
2023-02-28T08:45:03.427Z,75.37
2023-02-28T08:46:03.445Z,75.53
2023-02-28T08:47:03.408Z,74.11
2023-02-28T08:48:03.414Z,74.48
2023-02-28T08:49:03.406Z,73.77
2023-02-28T08:50:03.419Z,71.97
2023-02-28T08:51:08.281Z,70.76
2023-02-28T08:52:03.424Z,71.00
2023-02-28T08:53:03.398Z,71.20
2023-02-28T08:54:03.413Z,70.32
2023-02-28T08:55:03.397Z,67.62
2023-02-28T08:56:03.398Z,68.40
2023-02-28T08:57:03.397Z,67.22
2023-02-28T08:58:03.394Z,68.33
2023-02-28T08:59:03.434Z,68.51
2023-02-28T09:00:03.404Z,67.07
2023-02-28T09:01:03.447Z,66.16
2023-02-28T09:02:03.395Z,64.51
2023-02-28T09:03:03.400Z,65.05
2023-02-28T09:04:03.409Z,64.70
2023-02-28T09:05:03.395Z,66.42
2023-02-28T09:06:03.398Z,66.01
2023-02-28T09:07:03.407Z,67.66
2023-02-28T09:08:03.398Z,63.73
2023-02-28T09:09:03.392Z,65.21
2023-02-28T09:10:03.410Z,64.64
2023-02-28T09:11:03.567Z,64.55
2023-02-28T09:12:03.400Z,62.26
2023-02-28T09:13:03.396Z,63.37
2023-02-28T09:14:03.398Z,63.37
2023-02-28T09:15:03.425Z,62.37
2023-02-28T09:16:03.397Z,60.78
2023-02-28T09:18:03.400Z,62.24
2023-02-28T09:19:03.399Z,62.15
2023-02-28T09:20:03.405Z,60.96
2023-02-28T09:21:03.396Z,59.25
2023-02-28T09:22:03.402Z,60.29
2023-02-28T09:23:03.406Z,57.11
2023-02-28T09:24:03.428Z,56.91
2023-02-28T09:25:03.404Z,56.30
2023-02-28T09:26:03.418Z,57.44
2023-02-28T09:27:05.207Z,57.48
2023-02-28T09:28:03.408Z,55.68
2023-02-28T09:29:03.402Z,57.83
2023-02-28T09:30:03.408Z,56.27
2023-02-28T09:31:03.563Z,54.77
2023-02-28T09:32:03.518Z,54.22
2023-02-28T09:33:03.404Z,53.42
2023-02-28T09:34:03.478Z,54.33
2023-02-28T09:35:03.423Z,56.77
2023-02-28T09:36:03.503Z,58.22
2023-02-28T09:37:03.498Z,59.53
2023-02-28T09:38:03.416Z,59.96
2023-02-28T09:39:03.408Z,57.92
2023-02-28T09:40:03.422Z,60.26
2023-02-28T09:41:03.416Z,59.25
2023-02-28T09:42:03.418Z,59.73
2023-02-28T09:43:03.422Z,59.21
2023-02-28T09:44:03.409Z,59.44
2023-02-28T09:45:03.421Z,59.80
2023-02-28T09:46:03.554Z,60.02
2023-02-28T09:47:03.438Z,58.01
2023-02-28T09:48:03.417Z,58.44
2023-02-28T09:49:03.411Z,57.78
2023-02-28T09:50:03.417Z,59.20
2023-02-28T09:51:03.412Z,60.08
2023-02-28T09:52:03.413Z,58.89
2023-02-28T09:53:03.413Z,60.15
2023-02-28T09:54:03.420Z,58.31
2023-02-28T09:55:03.424Z,56.87
2023-02-28T09:56:03.414Z,57.53
2023-02-28T09:57:03.411Z,55.74
2023-02-28T09:58:03.408Z,56.65
2023-02-28T09:59:03.414Z,57.84
2023-02-28T10:00:03.423Z,60.38
2023-02-28T10:01:03.481Z,60.79
2023-02-28T10:02:03.416Z,62.48
2023-02-28T10:03:03.451Z,62.74
2023-02-28T10:04:03.435Z,63.14
2023-02-28T10:05:03.476Z,63.14
2023-02-28T10:06:03.412Z,64.18
2023-02-28T10:07:03.413Z,65.23
2023-02-28T10:08:03.409Z,65.00
2023-02-28T10:09:03.409Z,64.59
2023-02-28T10:10:03.410Z,64.73
2023-02-28T10:11:03.416Z,65.53
2023-02-28T10:12:03.411Z,66.88
2023-02-28T10:13:03.414Z,66.99
2023-02-28T10:14:03.427Z,67.35
2023-02-28T10:15:03.431Z,68.44
2023-02-28T10:16:03.476Z,67.32
2023-02-28T10:17:03.402Z,67.72
2023-02-28T10:18:08.858Z,68.84
2023-02-28T10:19:03.433Z,69.38
2023-02-28T10:20:03.399Z,69.86
2023-02-28T10:21:03.399Z,71.70
2023-02-28T10:22:03.399Z,69.32
2023-02-28T10:23:03.391Z,68.91
2023-02-28T10:24:03.400Z,68.84
2023-02-28T10:25:04.371Z,69.21
2023-02-28T10:26:03.448Z,69.65
2023-02-28T10:27:03.388Z,70.85
2023-02-28T10:28:03.408Z,71.53
2023-02-28T10:29:03.385Z,70.68
2023-02-28T10:30:03.390Z,69.25
2023-02-28T10:31:03.439Z,68.74
2023-02-28T10:32:03.436Z,69.59
2023-02-28T10:33:03.443Z,70.10
2023-02-28T10:34:03.387Z,70.31
2023-02-28T10:35:03.416Z,70.34
2023-02-28T10:36:03.488Z,71.05
2023-02-28T10:37:03.381Z,69.76
2023-02-28T10:38:03.389Z,68.95
2023-02-28T10:39:03.386Z,69.46
2023-02-28T10:40:03.382Z,69.32
2023-02-28T10:41:03.372Z,71.19
2023-02-28T10:42:03.380Z,70.37
2023-02-28T10:43:03.375Z,72.04
2023-02-28T10:44:03.377Z,69.86
2023-02-28T10:45:03.363Z,68.20
2023-02-28T10:46:03.409Z,70.38
2023-02-28T10:47:03.367Z,68.04
2023-02-28T10:48:03.374Z,68.01
2023-02-28T10:49:03.369Z,68.31
2023-02-28T10:50:03.376Z,67.12
2023-02-28T10:55:03.384Z,67.69
2023-02-28T10:56:03.359Z,70.17
2023-02-28T10:57:03.352Z,68.65
2023-02-28T10:58:03.355Z,67.52
2023-02-28T10:59:03.368Z,67.99
2023-02-28T11:00:03.352Z,69.29
2023-02-28T11:01:03.356Z,70.98
2023-02-28T11:02:03.467Z,71.06
2023-02-28T11:03:03.347Z,70.51
2023-02-28T11:04:03.348Z,69.52
2023-02-28T11:05:03.429Z,71.36
2023-02-28T11:06:03.343Z,71.56
2023-02-28T11:07:03.337Z,71.97
2023-02-28T11:08:03.353Z,72.07
2023-02-28T11:09:03.333Z,71.67
2023-02-28T11:10:03.339Z,72.55
2023-02-28T11:11:03.360Z,69.96
2023-02-28T11:12:03.368Z,70.10
2023-02-28T11:13:03.337Z,71.50
2023-02-28T11:14:03.328Z,70.47
2023-02-28T11:15:03.328Z,71.26
2023-02-28T11:16:03.402Z,71.53
2023-02-28T11:17:03.327Z,72.38
2023-02-28T11:18:03.314Z,72.04
2023-02-28T11:19:03.319Z,70.38
2023-02-28T11:20:03.319Z,70.34
2023-02-28T11:21:03.315Z,67.02
2023-02-28T11:22:03.320Z,69.15
2023-02-28T11:23:03.329Z,69.73
2023-02-28T11:24:03.336Z,69.56
2023-02-28T11:25:03.310Z,69.35
2023-02-28T11:26:03.318Z,69.32
2023-02-28T11:27:03.331Z,71.09
2023-02-28T11:28:03.309Z,69.12
2023-02-28T11:29:03.315Z,68.27
2023-02-28T11:30:03.292Z,68.31
2023-02-28T11:31:03.392Z,66.74
2023-02-28T11:32:03.360Z,69.56
2023-02-28T11:33:03.325Z,70.44
2023-02-28T11:34:03.303Z,69.26
2023-02-28T11:35:03.305Z,68.68
2023-02-28T11:36:03.311Z,70.41
2023-02-28T11:37:03.286Z,70.21
2023-02-28T11:38:03.292Z,70.21
2023-02-28T11:39:03.301Z,71.60
2023-02-28T11:40:03.306Z,71.06
2023-02-28T11:41:03.299Z,69.76
2023-02-28T11:42:03.366Z,68.85
2023-02-28T11:43:03.315Z,69.29
2023-02-28T11:44:03.297Z,69.59
2023-02-28T11:45:03.277Z,70.37
2023-02-28T11:46:03.299Z,69.69
2023-02-28T11:47:03.329Z,70.92
2023-02-28T11:48:03.280Z,70.85
2023-02-28T11:49:03.278Z,70.34
2023-02-28T11:50:03.266Z,71.29
2023-02-28T11:51:03.268Z,70.27
2023-02-28T11:52:03.260Z,70.68
2023-02-28T11:53:03.267Z,70.68
2023-02-28T11:54:03.286Z,70.85
2023-02-28T11:55:03.272Z,70.44
2023-02-28T11:56:03.260Z,71.33
2023-02-28T11:57:03.260Z,72.48
2023-02-28T11:58:03.265Z,69.22
2023-02-28T11:59:03.279Z,68.91
2023-02-28T12:00:03.256Z,70.48
2023-02-28T12:01:03.263Z,69.29
2023-02-28T12:02:03.285Z,70.92
2023-02-28T12:03:03.314Z,70.92
2023-02-28T12:04:03.260Z,71.91
2023-02-28T12:05:03.252Z,70.48
2023-02-28T12:06:03.249Z,70.51
2023-02-28T12:07:03.256Z,70.89
2023-02-28T12:08:03.270Z,71.09
2023-02-28T12:09:03.261Z,70.89
2023-02-28T12:10:03.248Z,69.63
2023-02-28T12:11:03.253Z,70.62
2023-02-28T12:12:03.242Z,69.49
2023-02-28T12:13:03.247Z,69.80
2023-02-28T12:14:03.238Z,68.85
2023-02-28T12:15:03.267Z,69.09
2023-02-28T12:16:03.262Z,68.31
2023-02-28T12:17:03.240Z,68.54
2023-02-28T12:18:03.240Z,69.29
2023-02-28T12:19:03.260Z,69.02
2023-02-28T12:20:03.263Z,70.95
2023-02-28T12:21:03.263Z,69.93
2023-02-28T12:22:03.250Z,70.51
2023-02-28T12:23:03.255Z,69.26
2023-02-28T12:24:03.267Z,68.44
2023-02-28T12:25:03.224Z,68.57
2023-02-28T12:27:03.223Z,69.15
2023-02-28T12:28:03.223Z,71.67
2023-02-28T12:29:03.220Z,70.21
2023-02-28T12:30:03.219Z,68.44
2023-02-28T12:31:03.241Z,66.99
2023-02-28T12:32:03.389Z,67.60
2023-02-28T12:33:03.213Z,67.55
2023-02-28T12:34:03.206Z,68.64
2023-02-28T12:35:03.208Z,67.65
2023-02-28T12:36:03.238Z,68.77
2023-02-28T12:37:03.206Z,69.32
2023-02-28T12:38:03.235Z,70.95
2023-02-28T12:39:03.207Z,70.00
2023-02-28T12:40:03.210Z,72.11
2023-02-28T12:41:03.200Z,71.39
2023-02-28T12:42:03.213Z,70.68
2023-02-28T12:43:03.197Z,71.59
2023-02-28T12:44:03.201Z,72.17
2023-02-28T12:45:03.188Z,70.85
2023-02-28T12:46:03.310Z,71.67
2023-02-28T12:47:03.224Z,70.61
2023-02-28T12:48:03.189Z,69.79
2023-02-28T12:49:03.201Z,69.69
2023-02-28T12:50:03.190Z,70.88
2023-02-28T12:51:03.551Z,71.26
2023-02-28T12:52:03.199Z,71.33
2023-02-28T12:53:03.177Z,69.79
2023-02-28T12:54:03.186Z,68.54
2023-02-28T12:55:03.170Z,68.54
2023-02-28T12:56:03.177Z,70.37
2023-02-28T12:57:03.176Z,69.46
2023-02-28T12:58:03.177Z,69.73